sensor_id;sensor_type;location;lat;lon;timestamp;temperature;humidity
57753;DHT22;43583;53.132;6.574;2022-09-09T00:00:22;13.90;99.90
57753;DHT22;43583;53.132;6.574;2022-09-09T00:03:37;13.90;99.90
57753;DHT22;43583;53.132;6.574;2022-09-09T00:06:12;13.90;99.90
57753;DHT22;43583;53.132;6.574;2022-09-09T00:09:29;13.80;99.90
57753;DHT22;43583;53.132;6.574;2022-09-09T00:11:41;13.80;99.90
57753;DHT22;43583;53.132;6.574;2022-09-09T00:14:16;13.80;99.90
57753;DHT22;43583;53.132;6.574;2022-09-09T00:16:48;13.80;99.90
57753;DHT22;43583;53.132;6.574;2022-09-09T00:19:18;13.80;99.90
57753;DHT22;43583;53.132;6.574;2022-09-09T00:22:06;13.80;99.90
57753;DHT22;43583;53.132;6.574;2022-09-09T00:24:47;13.80;99.90
57753;DHT22;43583;53.132;6.574;2022-09-09T00:27:31;13.80;99.90
57753;DHT22;43583;53.132;6.574;2022-09-09T00:30:17;13.80;99.90
57753;DHT22;43583;53.132;6.574;2022-09-09T00:32:50;13.70;99.90
57753;DHT22;43583;53.132;6.574;2022-09-09T00:35:18;13.70;99.90
57753;DHT22;43583;53.132;6.574;2022-09-09T00:37:46;13.70;99.90
57753;DHT22;43583;53.132;6.574;2022-09-09T00:40:35;13.70;99.90
57753;DHT22;43583;53.132;6.574;2022-09-09T00:48:54;13.60;99.90
57753;DHT22;43583;53.132;6.574;2022-09-09T00:54:20;13.50;99.90
57753;DHT22;43583;53.132;6.574;2022-09-09T00:57:06;13.50;99.90
57753;DHT22;43583;53.132;6.574;2022-09-09T00:59:54;13.40;99.90
57753;DHT22;43583;53.132;6.574;2022-09-09T01:03:17;13.40;99.90
57753;DHT22;43583;53.132;6.574;2022-09-09T01:06:00;13.30;99.90
57753;DHT22;43583;53.132;6.574;2022-09-09T01:11:32;13.20;99.90
57753;DHT22;43583;53.132;6.574;2022-09-09T01:19:45;13.00;99.90
57753;DHT22;43583;53.132;6.574;2022-09-09T01:27:42;12.90;99.90
57753;DHT22;43583;53.132;6.574;2022-09-09T01:30:13;12.90;99.90
57753;DHT22;43583;53.132;6.574;2022-09-09T01:32:51;12.90;99.90
57753;DHT22;43583;53.132;6.574;2022-09-09T01:35:45;12.80;99.90
57753;DHT22;43583;53.132;6.574;2022-09-09T01:38:12;12.80;99.90
57753;DHT22;43583;53.132;6.574;2022-09-09T01:40:39;12.70;99.90
57753;DHT22;43583;53.132;6.574;2022-09-09T01:43:04;12.70;99.90
57753;DHT22;43583;53.132;6.574;2022-09-09T01:45:31;12.60;99.90
57753;DHT22;43583;53.132;6.574;2022-09-09T01:47:58;12.60;99.90
57753;DHT22;43583;53.132;6.574;2022-09-09T01:50:24;12.60;99.90
57753;DHT22;43583;53.132;6.574;2022-09-09T01:52:54;12.60;99.90
57753;DHT22;43583;53.132;6.574;2022-09-09T01:58:50;12.60;99.90
57753;DHT22;43583;53.132;6.574;2022-09-09T02:01:42;12.70;99.90
57753;DHT22;43583;53.132;6.574;2022-09-09T02:06:56;12.80;99.90
57753;DHT22;43583;53.132;6.574;2022-09-09T02:09:23;12.90;99.90
57753;DHT22;43583;53.132;6.574;2022-09-09T02:11:59;13.00;99.90
57753;DHT22;43583;53.132;6.574;2022-09-09T02:14:35;13.10;99.90
57753;DHT22;43583;53.132;6.574;2022-09-09T02:17:10;13.10;99.90
57753;DHT22;43583;53.132;6.574;2022-09-09T02:19:41;13.20;99.90
57753;DHT22;43583;53.132;6.574;2022-09-09T02:22:10;13.30;99.90
57753;DHT22;43583;53.132;6.574;2022-09-09T02:24:37;13.30;99.90
57753;DHT22;43583;53.132;6.574;2022-09-09T02:27:06;13.40;99.90
57753;DHT22;43583;53.132;6.574;2022-09-09T02:29:39;13.40;99.90
57753;DHT22;43583;53.132;6.574;2022-09-09T02:32:11;13.50;99.90
57753;DHT22;43583;53.132;6.574;2022-09-09T02:34:42;13.50;99.90
57753;DHT22;43583;53.132;6.574;2022-09-09T02:37:09;13.60;99.90
57753;DHT22;43583;53.132;6.574;2022-09-09T02:39:36;13.70;99.90
57753;DHT22;43583;53.132;6.574;2022-09-09T02:42:03;13.70;99.90
57753;DHT22;43583;53.132;6.574;2022-09-09T02:44:29;13.70;99.90
57753;DHT22;43583;53.132;6.574;2022-09-09T02:47:19;13.80;99.90
57753;DHT22;43583;53.132;6.574;2022-09-09T02:52:48;13.90;99.90
57753;DHT22;43583;53.132;6.574;2022-09-09T02:58:04;14.00;99.90
57753;DHT22;43583;53.132;6.574;2022-09-09T03:00:31;14.00;99.90
57753;DHT22;43583;53.132;6.574;2022-09-09T03:02:58;14.00;99.90
57753;DHT22;43583;53.132;6.574;2022-09-09T03:05:23;14.10;99.90
57753;DHT22;43583;53.132;6.574;2022-09-09T03:07:49;14.10;99.90
57753;DHT22;43583;53.132;6.574;2022-09-09T03:10:16;14.10;99.90
57753;DHT22;43583;53.132;6.574;2022-09-09T03:12:41;14.20;99.90
57753;DHT22;43583;53.132;6.574;2022-09-09T03:15:07;14.20;99.90
57753;DHT22;43583;53.132;6.574;2022-09-09T03:17:33;14.20;99.90
57753;DHT22;43583;53.132;6.574;2022-09-09T03:19:59;14.30;99.90
57753;DHT22;43583;53.132;6.574;2022-09-09T03:22:25;14.30;99.90
57753;DHT22;43583;53.132;6.574;2022-09-09T03:24:51;14.30;99.90
57753;DHT22;43583;53.132;6.574;2022-09-09T03:27:17;14.30;99.90
57753;DHT22;43583;53.132;6.574;2022-09-09T03:29:45;14.30;99.90
57753;DHT22;43583;53.132;6.574;2022-09-09T03:32:11;14.40;99.90
57753;DHT22;43583;53.132;6.574;2022-09-09T03:34:37;14.40;99.90
57753;DHT22;43583;53.132;6.574;2022-09-09T03:37:06;14.40;99.90
57753;DHT22;43583;53.132;6.574;2022-09-09T03:39:32;14.40;99.90
57753;DHT22;43583;53.132;6.574;2022-09-09T03:41:57;14.50;99.90
57753;DHT22;43583;53.132;6.574;2022-09-09T03:44:23;14.50;99.90
57753;DHT22;43583;53.132;6.574;2022-09-09T03:46:48;14.50;99.90
57753;DHT22;43583;53.132;6.574;2022-09-09T03:49:14;14.60;99.90
57753;DHT22;43583;53.132;6.574;2022-09-09T03:51:41;14.60;99.90
57753;DHT22;43583;53.132;6.574;2022-09-09T03:54:07;14.60;99.90
57753;DHT22;43583;53.132;6.574;2022-09-09T03:56:35;14.60;99.90
57753;DHT22;43583;53.132;6.574;2022-09-09T03:59:01;14.60;99.90
57753;DHT22;43583;53.132;6.574;2022-09-09T04:01:28;14.60;99.90
57753;DHT22;43583;53.132;6.574;2022-09-09T04:03:53;14.70;99.90
57753;DHT22;43583;53.132;6.574;2022-09-09T04:06:20;14.70;99.90
57753;DHT22;43583;53.132;6.574;2022-09-09T04:08:46;14.60;99.90
57753;DHT22;43583;53.132;6.574;2022-09-09T04:11:15;14.60;99.90
57753;DHT22;43583;53.132;6.574;2022-09-09T04:13:41;14.60;99.90
57753;DHT22;43583;53.132;6.574;2022-09-09T04:16:09;14.70;99.90
57753;DHT22;43583;53.132;6.574;2022-09-09T04:18:35;14.70;99.90
57753;DHT22;43583;53.132;6.574;2022-09-09T04:21:01;14.70;99.90
57753;DHT22;43583;53.132;6.574;2022-09-09T04:23:28;14.70;99.90
57753;DHT22;43583;53.132;6.574;2022-09-09T04:25:58;14.70;99.90
57753;DHT22;43583;53.132;6.574;2022-09-09T04:28:26;14.60;99.90
57753;DHT22;43583;53.132;6.574;2022-09-09T04:30:52;14.70;99.90
57753;DHT22;43583;53.132;6.574;2022-09-09T04:33:18;14.70;99.90
57753;DHT22;43583;53.132;6.574;2022-09-09T04:35:45;14.60;99.90
57753;DHT22;43583;53.132;6.574;2022-09-09T04:38:12;14.60;99.90
57753;DHT22;43583;53.132;6.574;2022-09-09T04:40:38;14.70;99.90
57753;DHT22;43583;53.132;6.574;2022-09-09T04:43:08;14.60;99.90
57753;DHT22;43583;53.132;6.574;2022-09-09T04:45:33;14.60;99.90
57753;DHT22;43583;53.132;6.574;2022-09-09T04:47:59;14.60;99.90
57753;DHT22;43583;53.132;6.574;2022-09-09T04:50:24;14.60;99.90
57753;DHT22;43583;53.132;6.574;2022-09-09T04:52:50;14.60;99.90
57753;DHT22;43583;53.132;6.574;2022-09-09T04:55:16;14.60;99.90
57753;DHT22;43583;53.132;6.574;2022-09-09T04:57:42;14.60;99.90
57753;DHT22;43583;53.132;6.574;2022-09-09T05:00:11;14.60;99.90
57753;DHT22;43583;53.132;6.574;2022-09-09T05:02:37;14.60;99.90
57753;DHT22;43583;53.132;6.574;2022-09-09T05:05:04;14.60;99.90
57753;DHT22;43583;53.132;6.574;2022-09-09T05:07:29;14.60;99.90
57753;DHT22;43583;53.132;6.574;2022-09-09T05:10:03;14.60;99.90
57753;DHT22;43583;53.132;6.574;2022-09-09T05:12:30;14.60;99.90
57753;DHT22;43583;53.132;6.574;2022-09-09T05:14:56;14.50;99.90
57753;DHT22;43583;53.132;6.574;2022-09-09T05:17:22;14.50;99.90
57753;DHT22;43583;53.132;6.574;2022-09-09T05:19:48;14.50;99.90
57753;DHT22;43583;53.132;6.574;2022-09-09T05:22:19;14.50;99.90
57753;DHT22;43583;53.132;6.574;2022-09-09T05:24:45;14.50;99.90
57753;DHT22;43583;53.132;6.574;2022-09-09T05:27:11;14.50;99.90
57753;DHT22;43583;53.132;6.574;2022-09-09T05:29:38;14.50;99.90
57753;DHT22;43583;53.132;6.574;2022-09-09T05:32:04;14.50;99.90
57753;DHT22;43583;53.132;6.574;2022-09-09T05:34:30;14.50;99.90
57753;DHT22;43583;53.132;6.574;2022-09-09T05:36:55;14.50;99.90
57753;DHT22;43583;53.132;6.574;2022-09-09T05:39:21;14.50;99.90
57753;DHT22;43583;53.132;6.574;2022-09-09T05:41:46;14.50;99.90
57753;DHT22;43583;53.132;6.574;2022-09-09T05:44:12;14.50;99.90
57753;DHT22;43583;53.132;6.574;2022-09-09T05:46:39;14.60;99.90
57753;DHT22;43583;53.132;6.574;2022-09-09T05:49:05;14.50;99.90
57753;DHT22;43583;53.132;6.574;2022-09-09T05:51:31;14.60;99.90
57753;DHT22;43583;53.132;6.574;2022-09-09T05:53:57;14.60;99.90
57753;DHT22;43583;53.132;6.574;2022-09-09T05:56:27;14.60;99.90
57753;DHT22;43583;53.132;6.574;2022-09-09T05:58:53;14.60;99.90
57753;DHT22;43583;53.132;6.574;2022-09-09T06:01:22;14.60;99.90
57753;DHT22;43583;53.132;6.574;2022-09-09T06:03:49;14.70;99.90
57753;DHT22;43583;53.132;6.574;2022-09-09T06:06:17;14.70;99.90
57753;DHT22;43583;53.132;6.574;2022-09-09T06:08:44;14.70;99.90
57753;DHT22;43583;53.132;6.574;2022-09-09T06:11:16;14.70;99.90
57753;DHT22;43583;53.132;6.574;2022-09-09T06:13:42;14.70;99.90
57753;DHT22;43583;53.132;6.574;2022-09-09T06:16:12;14.80;99.90
57753;DHT22;43583;53.132;6.574;2022-09-09T06:18:39;14.70;99.90
57753;DHT22;43583;53.132;6.574;2022-09-09T06:21:06;14.80;99.90
57753;DHT22;43583;53.132;6.574;2022-09-09T06:23:33;14.80;99.90
57753;DHT22;43583;53.132;6.574;2022-09-09T06:26:07;14.80;99.90
57753;DHT22;43583;53.132;6.574;2022-09-09T06:28:34;14.80;99.90
57753;DHT22;43583;53.132;6.574;2022-09-09T06:31:09;14.90;99.90
57753;DHT22;43583;53.132;6.574;2022-09-09T06:33:35;15.00;99.90
57753;DHT22;43583;53.132;6.574;2022-09-09T06:36:03;15.10;99.90
57753;DHT22;43583;53.132;6.574;2022-09-09T06:38:32;15.10;99.90
57753;DHT22;43583;53.132;6.574;2022-09-09T06:40:59;15.20;99.90
57753;DHT22;43583;53.132;6.574;2022-09-09T06:43:26;15.30;99.90
57753;DHT22;43583;53.132;6.574;2022-09-09T06:45:59;15.40;99.90
57753;DHT22;43583;53.132;6.574;2022-09-09T06:48:26;15.50;99.90
57753;DHT22;43583;53.132;6.574;2022-09-09T06:51:16;15.60;99.90
57753;DHT22;43583;53.132;6.574;2022-09-09T06:53:43;15.80;99.90
57753;DHT22;43583;53.132;6.574;2022-09-09T06:58:36;16.00;99.90
57753;DHT22;43583;53.132;6.574;2022-09-09T07:01:07;16.00;99.90
57753;DHT22;43583;53.132;6.574;2022-09-09T07:03:33;16.10;99.90
57753;DHT22;43583;53.132;6.574;2022-09-09T07:05:59;16.10;99.90
57753;DHT22;43583;53.132;6.574;2022-09-09T07:08:25;16.20;99.90
57753;DHT22;43583;53.132;6.574;2022-09-09T07:10:52;16.20;99.90
57753;DHT22;43583;53.132;6.574;2022-09-09T07:13:25;16.20;99.90
57753;DHT22;43583;53.132;6.574;2022-09-09T07:15:53;16.20;99.90
57753;DHT22;43583;53.132;6.574;2022-09-09T07:18:19;16.30;99.90
57753;DHT22;43583;53.132;6.574;2022-09-09T07:20:54;16.40;99.90
57753;DHT22;43583;53.132;6.574;2022-09-09T07:23:21;16.50;99.90
57753;DHT22;43583;53.132;6.574;2022-09-09T07:25:47;16.70;99.90
57753;DHT22;43583;53.132;6.574;2022-09-09T07:28:13;16.80;99.90
57753;DHT22;43583;53.132;6.574;2022-09-09T07:30:39;17.10;99.90
57753;DHT22;43583;53.132;6.574;2022-09-09T07:33:06;17.40;99.90
57753;DHT22;43583;53.132;6.574;2022-09-09T07:35:32;17.70;99.90
57753;DHT22;43583;53.132;6.574;2022-09-09T07:38:00;18.00;99.90
57753;DHT22;43583;53.132;6.574;2022-09-09T07:40:26;18.10;99.90
57753;DHT22;43583;53.132;6.574;2022-09-09T07:42:51;18.30;99.90
57753;DHT22;43583;53.132;6.574;2022-09-09T07:45:17;18.40;99.90
57753;DHT22;43583;53.132;6.574;2022-09-09T07:47:42;18.40;99.90
57753;DHT22;43583;53.132;6.574;2022-09-09T07:50:09;18.50;99.90
57753;DHT22;43583;53.132;6.574;2022-09-09T07:52:35;18.60;99.90
57753;DHT22;43583;53.132;6.574;2022-09-09T07:55:01;18.70;99.90
57753;DHT22;43583;53.132;6.574;2022-09-09T07:57:28;18.80;99.90
57753;DHT22;43583;53.132;6.574;2022-09-09T07:59:56;19.20;99.90
57753;DHT22;43583;53.132;6.574;2022-09-09T08:02:22;19.90;99.90
57753;DHT22;43583;53.132;6.574;2022-09-09T08:04:48;20.70;99.90
57753;DHT22;43583;53.132;6.574;2022-09-09T08:07:14;21.90;99.90
57753;DHT22;43583;53.132;6.574;2022-09-09T08:09:41;22.80;99.90
57753;DHT22;43583;53.132;6.574;2022-09-09T08:12:07;22.90;99.90
57753;DHT22;43583;53.132;6.574;2022-09-09T08:14:33;22.80;99.90
57753;DHT22;43583;53.132;6.574;2022-09-09T08:16:59;22.70;99.90
57753;DHT22;43583;53.132;6.574;2022-09-09T08:19:25;22.60;99.90
57753;DHT22;43583;53.132;6.574;2022-09-09T08:21:54;22.50;99.90
57753;DHT22;43583;53.132;6.574;2022-09-09T08:24:19;22.60;99.90
57753;DHT22;43583;53.132;6.574;2022-09-09T08:26:47;22.80;99.90
57753;DHT22;43583;53.132;6.574;2022-09-09T08:29:15;22.90;99.90
57753;DHT22;43583;53.132;6.574;2022-09-09T08:31:47;22.70;99.90
57753;DHT22;43583;53.132;6.574;2022-09-09T08:34:13;22.40;99.90
57753;DHT22;43583;53.132;6.574;2022-09-09T08:36:44;21.80;99.90
57753;DHT22;43583;53.132;6.574;2022-09-09T08:39:12;21.30;99.90
57753;DHT22;43583;53.132;6.574;2022-09-09T08:50:13;21.30;99.90
57753;DHT22;43583;53.132;6.574;2022-09-09T08:53:04;21.50;99.90
57753;DHT22;43583;53.132;6.574;2022-09-09T08:55:35;21.70;99.90
57753;DHT22;43583;53.132;6.574;2022-09-09T08:58:12;21.50;99.90
57753;DHT22;43583;53.132;6.574;2022-09-09T09:00:57;21.10;99.90
57753;DHT22;43583;53.132;6.574;2022-09-09T09:08:45;20.30;99.90
57753;DHT22;43583;53.132;6.574;2022-09-09T09:11:12;20.40;99.90
57753;DHT22;43583;53.132;6.574;2022-09-09T09:13:45;20.90;99.90
57753;DHT22;43583;53.132;6.574;2022-09-09T09:18:58;21.30;99.90
57753;DHT22;43583;53.132;6.574;2022-09-09T09:21:32;21.40;99.90
57753;DHT22;43583;53.132;6.574;2022-09-09T09:24:00;21.30;99.90
57753;DHT22;43583;53.132;6.574;2022-09-09T09:26:33;21.60;99.90
57753;DHT22;43583;53.132;6.574;2022-09-09T09:28:59;22.90;99.90
57753;DHT22;43583;53.132;6.574;2022-09-09T09:31:26;24.00;99.90
57753;DHT22;43583;53.132;6.574;2022-09-09T09:33:55;24.70;99.90
57753;DHT22;43583;53.132;6.574;2022-09-09T09:36:44;24.70;99.90
57753;DHT22;43583;53.132;6.574;2022-09-09T09:39:23;23.90;99.90
57753;DHT22;43583;53.132;6.574;2022-09-09T09:41:49;23.60;99.90
57753;DHT22;43583;53.132;6.574;2022-09-09T09:44:31;23.70;99.90
57753;DHT22;43583;53.132;6.574;2022-09-09T09:49:32;23.30;99.90
57753;DHT22;43583;53.132;6.574;2022-09-09T09:52:02;22.70;99.90
57753;DHT22;43583;53.132;6.574;2022-09-09T09:54:30;22.30;99.90
57753;DHT22;43583;53.132;6.574;2022-09-09T09:57:06;22.00;99.90
57753;DHT22;43583;53.132;6.574;2022-09-09T09:59:34;21.80;99.90
57753;DHT22;43583;53.132;6.574;2022-09-09T10:02:21;21.70;99.90
57753;DHT22;43583;53.132;6.574;2022-09-09T10:05:00;21.70;99.90
57753;DHT22;43583;53.132;6.574;2022-09-09T10:07:26;21.80;99.90
57753;DHT22;43583;53.132;6.574;2022-09-09T10:09:57;21.60;99.90
57753;DHT22;43583;53.132;6.574;2022-09-09T10:20:57;21.40;99.90
57753;DHT22;43583;53.132;6.574;2022-09-09T10:23:57;21.20;99.90
57753;DHT22;43583;53.132;6.574;2022-09-09T10:26:38;21.00;99.90
57753;DHT22;43583;53.132;6.574;2022-09-09T10:29:10;20.80;99.90
57753;DHT22;43583;53.132;6.574;2022-09-09T10:34:34;20.70;99.90
57753;DHT22;43583;53.132;6.574;2022-09-09T10:37:15;20.60;99.90
57753;DHT22;43583;53.132;6.574;2022-09-09T10:39:44;20.40;99.90
57753;DHT22;43583;53.132;6.574;2022-09-09T10:42:12;20.30;99.90
57753;DHT22;43583;53.132;6.574;2022-09-09T10:48:12;20.50;99.90
57753;DHT22;43583;53.132;6.574;2022-09-09T10:56:12;20.70;99.90
57753;DHT22;43583;53.132;6.574;2022-09-09T10:58:44;20.70;99.90
57753;DHT22;43583;53.132;6.574;2022-09-09T11:04:04;20.50;99.90
57753;DHT22;43583;53.132;6.574;2022-09-09T11:06:37;20.50;99.90
57753;DHT22;43583;53.132;6.574;2022-09-09T11:09:05;20.50;99.90
57753;DHT22;43583;53.132;6.574;2022-09-09T11:11:41;20.60;99.90
57753;DHT22;43583;53.132;6.574;2022-09-09T11:14:18;21.00;99.90
57753;DHT22;43583;53.132;6.574;2022-09-09T11:16:56;21.40;99.90
57753;DHT22;43583;53.132;6.574;2022-09-09T11:22:14;21.90;99.90
57753;DHT22;43583;53.132;6.574;2022-09-09T11:24:45;22.10;99.90
57753;DHT22;43583;53.132;6.574;2022-09-09T11:27:25;22.10;99.90
57753;DHT22;43583;53.132;6.574;2022-09-09T11:40:30;22.30;99.90
57753;DHT22;43583;53.132;6.574;2022-09-09T11:43:09;22.00;99.90
57753;DHT22;43583;53.132;6.574;2022-09-09T11:45:35;21.90;99.90
57753;DHT22;43583;53.132;6.574;2022-09-09T11:48:03;21.90;99.90
57753;DHT22;43583;53.132;6.574;2022-09-09T11:50:30;22.00;99.90
57753;DHT22;43583;53.132;6.574;2022-09-09T11:55:39;22.40;99.90
57753;DHT22;43583;53.132;6.574;2022-09-09T11:58:06;22.20;99.90
57753;DHT22;43583;53.132;6.574;2022-09-09T12:00:41;22.00;99.90
57753;DHT22;43583;53.132;6.574;2022-09-09T12:05:59;22.30;99.90
57753;DHT22;43583;53.132;6.574;2022-09-09T12:08:27;22.40;99.90
57753;DHT22;43583;53.132;6.574;2022-09-09T12:10:55;22.40;99.90
57753;DHT22;43583;53.132;6.574;2022-09-09T12:13:25;22.30;99.90
57753;DHT22;43583;53.132;6.574;2022-09-09T12:15:53;22.20;99.90
57753;DHT22;43583;53.132;6.574;2022-09-09T12:18:26;22.10;99.90
57753;DHT22;43583;53.132;6.574;2022-09-09T12:23:46;21.90;99.90
57753;DHT22;43583;53.132;6.574;2022-09-09T12:26:37;21.70;99.90
57753;DHT22;43583;53.132;6.574;2022-09-09T12:29:08;21.50;99.90
57753;DHT22;43583;53.132;6.574;2022-09-09T12:31:47;21.30;99.90
57753;DHT22;43583;53.132;6.574;2022-09-09T12:34:40;21.20;99.90
57753;DHT22;43583;53.132;6.574;2022-09-09T12:39:57;21.40;99.90
57753;DHT22;43583;53.132;6.574;2022-09-09T12:42:23;21.50;99.90
57753;DHT22;43583;53.132;6.574;2022-09-09T12:45:02;21.70;99.90
57753;DHT22;43583;53.132;6.574;2022-09-09T12:47:53;21.80;99.90
57753;DHT22;43583;53.132;6.574;2022-09-09T12:50:31;22.10;99.90
57753;DHT22;43583;53.132;6.574;2022-09-09T12:53:01;22.40;99.90
57753;DHT22;43583;53.132;6.574;2022-09-09T12:55:32;22.70;99.90
57753;DHT22;43583;53.132;6.574;2022-09-09T12:58:01;22.80;99.90
57753;DHT22;43583;53.132;6.574;2022-09-09T13:00:30;22.90;99.90
57753;DHT22;43583;53.132;6.574;2022-09-09T13:02:58;23.00;99.90
57753;DHT22;43583;53.132;6.574;2022-09-09T13:05:37;23.10;99.90
57753;DHT22;43583;53.132;6.574;2022-09-09T13:08:05;23.00;99.90
57753;DHT22;43583;53.132;6.574;2022-09-09T13:10:35;23.00;99.90
57753;DHT22;43583;53.132;6.574;2022-09-09T13:13:05;23.10;99.90
57753;DHT22;43583;53.132;6.574;2022-09-09T13:15:38;23.10;99.90
57753;DHT22;43583;53.132;6.574;2022-09-09T13:18:07;23.10;99.90
57753;DHT22;43583;53.132;6.574;2022-09-09T13:20:37;22.90;99.90
57753;DHT22;43583;53.132;6.574;2022-09-09T13:23:03;22.80;99.90
57753;DHT22;43583;53.132;6.574;2022-09-09T13:25:29;22.70;99.90
57753;DHT22;43583;53.132;6.574;2022-09-09T13:28:03;22.90;99.90
57753;DHT22;43583;53.132;6.574;2022-09-09T13:30:30;22.90;99.90
57753;DHT22;43583;53.132;6.574;2022-09-09T13:36:01;22.40;99.90
57753;DHT22;43583;53.132;6.574;2022-09-09T13:38:31;22.10;99.90
57753;DHT22;43583;53.132;6.574;2022-09-09T13:41:00;21.80;99.90
57753;DHT22;43583;53.132;6.574;2022-09-09T13:43:33;21.60;99.90
57753;DHT22;43583;53.132;6.574;2022-09-09T13:46:02;21.70;99.90
57753;DHT22;43583;53.132;6.574;2022-09-09T13:48:28;21.70;99.90
57753;DHT22;43583;53.132;6.574;2022-09-09T13:51:03;21.90;99.90
57753;DHT22;43583;53.132;6.574;2022-09-09T13:53:32;22.10;99.90
57753;DHT22;43583;53.132;6.574;2022-09-09T13:55:58;22.30;99.90
57753;DHT22;43583;53.132;6.574;2022-09-09T13:58:25;22.40;99.90
57753;DHT22;43583;53.132;6.574;2022-09-09T14:00:52;22.30;99.90
57753;DHT22;43583;53.132;6.574;2022-09-09T14:03:19;22.20;99.90
57753;DHT22;43583;53.132;6.574;2022-09-09T14:05:45;22.00;99.90
57753;DHT22;43583;53.132;6.574;2022-09-09T14:08:19;21.80;99.90
57753;DHT22;43583;53.132;6.574;2022-09-09T14:10:46;21.60;99.90
57753;DHT22;43583;53.132;6.574;2022-09-09T14:13:12;21.60;99.90
57753;DHT22;43583;53.132;6.574;2022-09-09T14:15:38;21.70;99.90
57753;DHT22;43583;53.132;6.574;2022-09-09T14:18:03;21.80;99.90
57753;DHT22;43583;53.132;6.574;2022-09-09T14:20:29;22.00;99.90
57753;DHT22;43583;53.132;6.574;2022-09-09T14:22:54;22.00;99.90
57753;DHT22;43583;53.132;6.574;2022-09-09T14:25:21;22.00;99.90
57753;DHT22;43583;53.132;6.574;2022-09-09T14:27:47;21.80;99.90
57753;DHT22;43583;53.132;6.574;2022-09-09T14:30:12;21.50;99.90
57753;DHT22;43583;53.132;6.574;2022-09-09T14:32:38;21.20;99.90
57753;DHT22;43583;53.132;6.574;2022-09-09T14:35:04;20.80;99.90
57753;DHT22;43583;53.132;6.574;2022-09-09T14:37:29;20.60;99.90
57753;DHT22;43583;53.132;6.574;2022-09-09T14:39:56;20.30;99.90
57753;DHT22;43583;53.132;6.574;2022-09-09T14:42:22;20.00;99.90
57753;DHT22;43583;53.132;6.574;2022-09-09T14:44:48;19.80;99.90
57753;DHT22;43583;53.132;6.574;2022-09-09T14:47:14;19.60;99.90
57753;DHT22;43583;53.132;6.574;2022-09-09T14:49:39;19.60;99.90
57753;DHT22;43583;53.132;6.574;2022-09-09T14:52:05;19.60;99.90
57753;DHT22;43583;53.132;6.574;2022-09-09T14:54:32;19.60;99.90
57753;DHT22;43583;53.132;6.574;2022-09-09T14:56:58;19.80;99.90
57753;DHT22;43583;53.132;6.574;2022-09-09T14:59:24;19.90;99.90
57753;DHT22;43583;53.132;6.574;2022-09-09T15:01:49;20.10;99.90
57753;DHT22;43583;53.132;6.574;2022-09-09T15:04:15;20.30;99.90
57753;DHT22;43583;53.132;6.574;2022-09-09T15:06:42;20.30;99.90
57753;DHT22;43583;53.132;6.574;2022-09-09T15:09:10;20.30;99.90
57753;DHT22;43583;53.132;6.574;2022-09-09T15:11:36;20.30;99.90
57753;DHT22;43583;53.132;6.574;2022-09-09T15:14:04;20.20;99.90
57753;DHT22;43583;53.132;6.574;2022-09-09T15:16:30;20.20;99.90
57753;DHT22;43583;53.132;6.574;2022-09-09T15:18:58;20.20;99.90
57753;DHT22;43583;53.132;6.574;2022-09-09T15:21:29;20.30;99.90
57753;DHT22;43583;53.132;6.574;2022-09-09T15:23:55;20.20;99.90
57753;DHT22;43583;53.132;6.574;2022-09-09T15:26:22;20.20;99.90
57753;DHT22;43583;53.132;6.574;2022-09-09T15:28:48;20.10;99.90
57753;DHT22;43583;53.132;6.574;2022-09-09T15:31:23;20.10;99.90
57753;DHT22;43583;53.132;6.574;2022-09-09T15:34:07;20.10;99.90
57753;DHT22;43583;53.132;6.574;2022-09-09T15:36:41;20.20;99.90
57753;DHT22;43583;53.132;6.574;2022-09-09T15:39:09;20.20;99.90
57753;DHT22;43583;53.132;6.574;2022-09-09T15:41:38;20.10;99.90
57753;DHT22;43583;53.132;6.574;2022-09-09T15:44:04;20.00;99.90
57753;DHT22;43583;53.132;6.574;2022-09-09T15:46:32;19.80;99.90
57753;DHT22;43583;53.132;6.574;2022-09-09T15:49:18;19.70;99.90
57753;DHT22;43583;53.132;6.574;2022-09-09T15:51:46;19.60;99.90
57753;DHT22;43583;53.132;6.574;2022-09-09T15:54:15;19.40;99.90
57753;DHT22;43583;53.132;6.574;2022-09-09T15:56:43;19.30;99.90
57753;DHT22;43583;53.132;6.574;2022-09-09T15:59:09;19.20;99.90
57753;DHT22;43583;53.132;6.574;2022-09-09T16:01:35;19.20;99.90
57753;DHT22;43583;53.132;6.574;2022-09-09T16:04:00;19.10;99.90
57753;DHT22;43583;53.132;6.574;2022-09-09T16:06:28;19.10;99.90
57753;DHT22;43583;53.132;6.574;2022-09-09T16:08:56;19.20;99.90
57753;DHT22;43583;53.132;6.574;2022-09-09T16:13:51;19.40;99.90
57753;DHT22;43583;53.132;6.574;2022-09-09T16:16:19;19.50;99.90
57753;DHT22;43583;53.132;6.574;2022-09-09T16:18:49;19.60;99.90
57753;DHT22;43583;53.132;6.574;2022-09-09T16:21:26;19.50;99.90
57753;DHT22;43583;53.132;6.574;2022-09-09T16:23:55;19.30;99.90
57753;DHT22;43583;53.132;6.574;2022-09-09T16:26:21;19.20;99.90
57753;DHT22;43583;53.132;6.574;2022-09-09T16:28:47;19.10;99.90
57753;DHT22;43583;53.132;6.574;2022-09-09T16:31:18;19.00;99.90
57753;DHT22;43583;53.132;6.574;2022-09-09T16:33:45;18.90;99.90
57753;DHT22;43583;53.132;6.574;2022-09-09T16:36:14;18.80;99.90
57753;DHT22;43583;53.132;6.574;2022-09-09T16:38:40;18.70;99.90
57753;DHT22;43583;53.132;6.574;2022-09-09T16:41:06;18.60;99.90
57753;DHT22;43583;53.132;6.574;2022-09-09T16:43:33;18.50;99.90
57753;DHT22;43583;53.132;6.574;2022-09-09T16:45:59;18.50;99.90
57753;DHT22;43583;53.132;6.574;2022-09-09T16:48:32;18.40;99.90
57753;DHT22;43583;53.132;6.574;2022-09-09T16:51:06;18.30;99.90
57753;DHT22;43583;53.132;6.574;2022-09-09T16:53:33;18.30;99.90
57753;DHT22;43583;53.132;6.574;2022-09-09T16:56:10;18.30;99.90
57753;DHT22;43583;53.132;6.574;2022-09-09T16:58:36;18.20;99.90
57753;DHT22;43583;53.132;6.574;2022-09-09T17:01:03;18.20;99.90
57753;DHT22;43583;53.132;6.574;2022-09-09T17:03:29;18.10;99.90
57753;DHT22;43583;53.132;6.574;2022-09-09T17:05:54;18.10;99.90
57753;DHT22;43583;53.132;6.574;2022-09-09T17:08:20;18.00;99.90
57753;DHT22;43583;53.132;6.574;2022-09-09T17:10:46;17.90;99.90
57753;DHT22;43583;53.132;6.574;2022-09-09T17:13:12;17.90;99.90
57753;DHT22;43583;53.132;6.574;2022-09-09T17:15:42;17.90;99.90
57753;DHT22;43583;53.132;6.574;2022-09-09T17:18:11;17.80;99.90
57753;DHT22;43583;53.132;6.574;2022-09-09T17:20:38;17.80;99.90
57753;DHT22;43583;53.132;6.574;2022-09-09T17:23:05;17.80;99.90
57753;DHT22;43583;53.132;6.574;2022-09-09T17:25:31;17.80;99.90
57753;DHT22;43583;53.132;6.574;2022-09-09T17:27:57;17.70;99.90
57753;DHT22;43583;53.132;6.574;2022-09-09T17:30:23;17.70;99.90
57753;DHT22;43583;53.132;6.574;2022-09-09T17:32:49;17.70;99.90
57753;DHT22;43583;53.132;6.574;2022-09-09T17:35:14;17.70;99.90